createdAt,value
2022-10-14T00:00:19.635Z,97886.47
2022-10-14T00:02:50.167Z,97891.50
2022-10-14T00:05:20.467Z,97899.66
2022-10-14T00:07:50.608Z,97896.38
2022-10-14T00:10:20.908Z,97891.50
2022-10-14T00:12:51.589Z,97893.03
2022-10-14T00:15:24.477Z,97893.22
2022-10-14T00:17:54.694Z,97893.72
2022-10-14T00:20:24.851Z,97886.41
2022-10-14T00:22:55.241Z,97888.19
2022-10-14T00:25:26.550Z,97889.25
2022-10-14T00:27:57.145Z,97891.50
2022-10-14T00:30:29.996Z,97891.31
2022-10-14T00:33:03.059Z,97889.53
2022-10-14T00:35:33.772Z,97889.28
2022-10-14T00:38:03.993Z,97885.50
2022-10-14T00:40:34.211Z,97889.06
2022-10-14T00:43:05.763Z,97892.38
2022-10-14T00:45:38.529Z,97902.06
2022-10-14T00:48:09.651Z,97889.44
2022-10-14T00:50:41.843Z,97888.44
2022-10-14T00:53:16.115Z,97897.06
2022-10-14T00:55:46.488Z,97903.88
2022-10-14T00:58:16.739Z,97895.28
2022-10-14T01:00:49.604Z,97896.28
2022-10-14T01:03:23.670Z,97889.03
2022-10-14T01:06:07.684Z,97890.78
2022-10-14T01:08:47.683Z,97884.91
2022-10-14T01:11:26.163Z,97879.16
2022-10-14T01:14:07.737Z,97884.00
2022-10-14T01:16:51.868Z,97886.00
2022-10-14T01:20:05.725Z,97886.50
2022-10-14T01:22:41.691Z,97882.72
2022-10-14T01:25:23.139Z,97878.66
2022-10-14T01:28:12.543Z,97882.69
2022-10-14T01:30:49.906Z,97884.44
2022-10-14T01:33:26.074Z,97881.41
2022-10-14T01:36:08.959Z,97879.88
2022-10-14T01:38:44.581Z,97872.22
2022-10-14T01:41:23.482Z,97877.06
2022-10-14T01:43:55.675Z,97875.06
2022-10-14T01:46:30.041Z,97869.50
2022-10-14T01:49:08.859Z,97872.47
2022-10-14T01:51:48.511Z,97865.94
2022-10-14T01:54:23.966Z,97859.38
2022-10-14T01:56:57.325Z,97855.03
2022-10-14T01:59:29.394Z,97858.16
2022-10-14T02:02:02.616Z,97853.59
2022-10-14T02:04:32.874Z,97854.34
2022-10-14T02:07:10.031Z,97859.44
2022-10-14T02:09:50.117Z,97856.09
2022-10-14T02:12:36.053Z,97856.31
2022-10-14T02:15:18.124Z,97847.16
2022-10-14T02:17:59.609Z,97857.03
2022-10-14T02:20:37.553Z,97851.44
2022-10-14T02:23:17.245Z,97848.13
2022-10-14T02:25:50.674Z,97856.28
2022-10-14T02:28:25.616Z,97851.28
2022-10-14T02:31:00.908Z,97854.34
2022-10-14T02:33:39.591Z,97854.34
2022-10-14T02:36:13.718Z,97849.31
2022-10-14T02:38:45.404Z,97848.56
2022-10-14T02:41:21.347Z,97855.94
2022-10-14T02:43:51.918Z,97844.53
2022-10-14T02:46:24.361Z,97843.00
2022-10-14T02:48:57.166Z,97846.78
2022-10-14T02:51:27.374Z,97835.38
2022-10-14T02:53:57.681Z,97830.28
2022-10-14T02:56:29.780Z,97831.03
2022-10-14T02:59:03.486Z,97826.69
2022-10-14T03:01:37.599Z,97824.16
2022-10-14T03:04:12.400Z,97825.66
2022-10-14T03:06:43.170Z,97826.38
2022-10-14T03:09:13.216Z,97830.19
2022-10-14T03:11:44.517Z,97832.19
2022-10-14T03:14:19.354Z,97824.31
2022-10-14T03:16:50.048Z,97833.94
2022-10-14T03:19:27.576Z,97831.91
2022-10-14T03:21:59.707Z,97829.09
2022-10-14T03:24:30.494Z,97823.28
2022-10-14T03:27:20.009Z,97822.72
2022-10-14T03:29:54.496Z,97813.78
2022-10-14T03:32:27.227Z,97827.66
2022-10-14T03:35:20.008Z,97822.78
2022-10-14T03:37:53.700Z,97818.47
2022-10-14T03:40:28.042Z,97811.66
2022-10-14T03:43:02.232Z,97820.50
2022-10-14T03:45:40.217Z,97813.47
2022-10-14T03:48:12.277Z,97809.44
2022-10-14T03:50:46.188Z,97809.97
2022-10-14T03:53:16.500Z,97817.50
2022-10-14T03:55:47.487Z,97810.41
2022-10-14T03:58:17.742Z,97811.94
2022-10-14T04:00:55.457Z,97811.44
2022-10-14T04:03:42.934Z,97810.41
2022-10-14T04:06:16.389Z,97806.09
2022-10-14T04:08:47.438Z,97807.81
2022-10-14T04:11:29.535Z,97808.09
2022-10-14T04:14:06.300Z,97804.06
2022-10-14T04:16:43.990Z,97798.72
2022-10-14T04:19:19.213Z,97798.72
2022-10-14T04:21:52.303Z,97799.19
2022-10-14T04:24:25.291Z,97794.53
2022-10-14T04:27:00.545Z,97790.44
2022-10-14T04:29:43.122Z,97787.66
2022-10-14T04:32:22.178Z,97794.06
2022-10-14T04:34:52.586Z,97794.31
2022-10-14T04:37:27.376Z,97791.50
2022-10-14T04:40:03.881Z,97790.88
2022-10-14T04:42:35.780Z,97792.59
2022-10-14T04:45:10.724Z,97790.59
2022-10-14T04:47:49.439Z,97790.34
2022-10-14T04:50:23.181Z,97791.84
2022-10-14T04:53:30.180Z,97796.88
2022-10-14T04:56:19.360Z,97793.31
2022-10-14T04:58:58.551Z,97791.31
2022-10-14T05:01:43.003Z,97798.47
2022-10-14T05:04:13.440Z,97794.13
2022-10-14T05:06:45.644Z,97797.59
2022-10-14T05:09:21.061Z,97784.44
2022-10-14T05:11:51.307Z,97783.44
2022-10-14T05:14:25.991Z,97780.34
2022-10-14T05:17:08.727Z,97787.88
2022-10-14T05:19:39.351Z,97777.47
2022-10-14T05:22:09.640Z,97781.81
2022-10-14T05:24:47.589Z,97768.34
2022-10-14T05:27:18.120Z,97771.06
2022-10-14T05:29:49.038Z,97769.59
2022-10-14T05:32:20.220Z,97772.72
2022-10-14T05:34:53.422Z,97777.13
2022-10-14T05:37:32.860Z,97777.88
2022-10-14T05:40:07.036Z,97767.22
2022-10-14T05:42:39.584Z,97775.81
2022-10-14T05:45:11.396Z,97768.97
2022-10-14T05:47:48.415Z,97773.09
2022-10-14T05:50:22.012Z,97770.88
2022-10-14T05:52:52.670Z,97772.47
2022-10-14T05:55:33.061Z,97778.38
2022-10-14T05:58:06.121Z,97773.59
2022-10-14T06:00:41.280Z,97774.88
2022-10-14T06:03:16.440Z,97776.91
2022-10-14T06:05:48.330Z,97768.84
2022-10-14T06:08:18.505Z,97767.59
2022-10-14T06:10:51.361Z,97770.63
2022-10-14T06:13:22.085Z,97772.41
2022-10-14T06:15:52.243Z,97769.63
2022-10-14T06:18:22.481Z,97771.41
2022-10-14T06:20:56.366Z,97771.97
2022-10-14T06:23:27.326Z,97778.31
2022-10-14T06:26:00.204Z,97772.75
2022-10-14T06:28:30.460Z,97782.91
2022-10-14T06:31:00.733Z,97784.19
2022-10-14T06:33:32.725Z,97782.47
2022-10-14T06:36:05.654Z,97784.06
2022-10-14T06:38:36.236Z,97781.81
2022-10-14T06:41:10.370Z,97790.50
2022-10-14T06:43:40.573Z,97787.25
2022-10-14T06:46:10.814Z,97782.47
2022-10-14T06:48:40.880Z,97793.19
2022-10-14T06:51:11.958Z,97790.16
2022-10-14T06:53:42.087Z,97789.19
2022-10-14T06:56:15.282Z,97795.78
2022-10-14T06:58:45.450Z,97797.59
2022-10-14T07:01:15.763Z,97793.53
2022-10-14T07:03:45.971Z,97799.91
2022-10-14T07:06:16.132Z,97801.41
2022-10-14T07:08:46.243Z,97803.47
2022-10-14T07:11:18.958Z,97799.13
2022-10-14T07:13:49.085Z,97801.66
2022-10-14T07:16:19.195Z,97804.94
2022-10-14T07:18:49.336Z,97808.22
2022-10-14T07:21:19.466Z,97805.19
2022-10-14T07:23:49.561Z,97804.41
2022-10-14T07:26:22.319Z,97806.16
2022-10-14T07:28:52.651Z,97814.28
2022-10-14T07:31:22.865Z,97814.50
2022-10-14T07:33:53.036Z,97808.94
2022-10-14T07:36:23.224Z,97810.72
2022-10-14T07:38:53.754Z,97808.94
2022-10-14T07:41:28.223Z,97806.16
2022-10-14T07:44:06.543Z,97803.13
2022-10-14T07:46:40.988Z,97813.28
2022-10-14T07:49:15.648Z,97810.28
2022-10-14T07:51:46.930Z,97816.09
2022-10-14T07:54:20.341Z,97813.56
2022-10-14T07:56:53.723Z,97826.19
2022-10-14T07:59:24.397Z,97825.16
2022-10-14T08:01:56.868Z,97835.97
2022-10-14T08:04:28.219Z,97829.56
2022-10-14T08:06:58.425Z,97840.97
2022-10-14T08:09:28.608Z,97832.78
2022-10-14T08:12:01.468Z,97837.53
2022-10-14T08:14:31.757Z,97836.19
2022-10-14T08:17:02.067Z,97843.84
2022-10-14T08:19:32.447Z,97842.78
2022-10-14T08:22:02.599Z,97839.69
2022-10-14T08:24:32.720Z,97840.72
2022-10-14T08:27:07.246Z,97831.50
2022-10-14T08:29:37.421Z,97834.19
2022-10-14T08:32:08.130Z,97830.47
2022-10-14T08:34:38.334Z,97826.72
2022-10-14T08:37:08.620Z,97828.31
2022-10-14T08:39:38.816Z,97827.44
2022-10-14T08:42:41.056Z,97831.47
2022-10-14T08:45:20.220Z,97835.66
2022-10-14T08:47:50.687Z,97828.59
2022-10-14T08:50:30.113Z,97817.47
2022-10-14T08:53:07.386Z,97820.53
2022-10-14T08:55:42.379Z,97822.28
2022-10-14T08:58:22.426Z,97827.53
2022-10-14T09:00:55.826Z,97826.69
2022-10-14T09:03:33.522Z,97823.22
2022-10-14T09:06:06.579Z,97817.19
2022-10-14T09:08:42.346Z,97823.91
2022-10-14T09:11:18.186Z,97821.13
2022-10-14T09:13:53.824Z,97807.47
2022-10-14T09:16:27.612Z,97820.16
2022-10-14T09:19:00.747Z,97816.38
2022-10-14T09:21:52.961Z,97822.22
2022-10-14T09:24:26.996Z,97814.91
2022-10-14T09:27:00.633Z,97813.13
2022-10-14T09:29:40.379Z,97810.31
2022-10-14T09:32:15.257Z,97807.25
2022-10-14T09:34:50.945Z,97809.25
2022-10-14T09:37:30.898Z,97811.06
2022-10-14T09:40:07.086Z,97807.22
2022-10-14T09:42:49.045Z,97799.47
2022-10-14T09:45:24.653Z,97800.69
2022-10-14T09:47:59.898Z,97803.69
2022-10-14T09:50:38.472Z,97792.94
2022-10-14T09:53:17.935Z,97791.97
2022-10-14T09:55:52.863Z,97786.84
2022-10-14T09:58:34.969Z,97788.63
2022-10-14T10:01:14.577Z,97791.50
2022-10-14T10:03:46.073Z,97791.84
2022-10-14T10:06:20.382Z,97780.84
2022-10-14T10:09:01.351Z,97778.09
2022-10-14T10:11:37.465Z,97770.84
2022-10-14T10:14:21.337Z,97775.63
2022-10-14T10:17:14.788Z,97774.38
2022-10-14T10:19:46.525Z,97763.28
2022-10-14T10:22:26.684Z,97767.19
2022-10-14T10:25:36.517Z,97763.63
2022-10-14T10:28:21.721Z,97765.78
2022-10-14T10:31:12.748Z,97768.63
2022-10-14T10:33:50.529Z,97764.03
2022-10-14T10:36:29.175Z,97763.78
2022-10-14T10:39:02.804Z,97764.53
2022-10-14T10:42:01.433Z,97763.00
2022-10-14T10:44:54.173Z,97758.72
2022-10-14T10:47:36.010Z,97754.66
2022-10-14T10:50:32.307Z,97750.06
2022-10-14T10:53:42.572Z,97749.34
2022-10-14T10:56:22.758Z,97752.84
2022-10-14T10:59:14.594Z,97749.69
2022-10-14T11:01:53.530Z,97752.94
2022-10-14T11:04:34.002Z,97738.84
2022-10-14T11:07:30.959Z,97733.97
2022-10-14T11:10:26.033Z,97727.72
2022-10-14T11:13:04.333Z,97727.34
2022-10-14T11:15:48.357Z,97746.03
2022-10-14T11:18:34.038Z,97726.19
2022-10-14T11:21:15.278Z,97729.88
2022-10-14T11:24:06.420Z,97724.50
2022-10-14T11:26:56.523Z,97719.66
2022-10-14T11:29:49.320Z,97711.47
2022-10-14T11:32:27.180Z,97704.38
2022-10-14T11:35:13.891Z,97706.28
2022-10-14T11:38:03.271Z,97703.22
2022-10-14T11:40:44.315Z,97707.41
2022-10-14T11:43:26.777Z,97700.19
2022-10-14T11:46:00.792Z,97703.94
2022-10-14T11:48:38.831Z,97702.44
2022-10-14T11:51:17.869Z,97690.53
2022-10-14T11:54:01.637Z,97685.22
2022-10-14T11:56:44.201Z,97681.09
2022-10-14T11:59:40.219Z,97677.09
2022-10-14T12:02:26.692Z,97675.56
2022-10-14T12:05:05.810Z,97679.38
2022-10-14T12:07:44.888Z,97678.03
2022-10-14T12:10:27.539Z,97672.22
2022-10-14T12:13:02.392Z,97670.66
2022-10-14T12:15:32.865Z,97672.09
2022-10-14T12:18:04.071Z,97666.84
2022-10-14T12:20:44.706Z,97672.41
2022-10-14T12:23:31.053Z,97663.00
2022-10-14T12:26:09.476Z,97656.25
2022-10-14T12:28:43.363Z,97663.81
2022-10-14T12:31:25.999Z,97653.16
2022-10-14T12:34:35.632Z,97652.56
2022-10-14T12:37:54.467Z,97649.72
2022-10-14T12:40:36.700Z,97650.28
2022-10-14T12:43:26.413Z,97645.19
2022-10-14T12:46:18.345Z,97645.25
2022-10-14T12:48:52.152Z,97635.50
2022-10-14T12:51:27.463Z,97632.56
2022-10-14T12:54:08.376Z,97637.50
2022-10-14T12:56:43.210Z,97631.53
2022-10-14T12:59:26.599Z,97640.22
2022-10-14T13:02:06.855Z,97641.19
2022-10-14T13:04:37.380Z,97642.25
2022-10-14T13:07:40.053Z,97643.69
2022-10-14T13:10:48.084Z,97632.81
2022-10-14T13:14:02.197Z,97630.50
2022-10-14T13:17:29.150Z,97625.91
2022-10-14T13:19:59.584Z,97625.38
2022-10-14T13:22:45.683Z,97625.78
2022-10-14T13:25:20.531Z,97610.56
2022-10-14T13:28:24.209Z,97607.28
2022-10-14T13:31:06.718Z,97602.38
2022-10-14T13:33:46.352Z,97600.69
2022-10-14T13:36:21.181Z,97589.84
2022-10-14T13:38:58.486Z,97594.50
2022-10-14T13:41:31.490Z,97599.63
2022-10-14T13:44:03.466Z,97592.31
2022-10-14T13:46:39.807Z,97594.19
2022-10-14T13:49:20.491Z,97598.50
2022-10-14T13:51:54.862Z,97601.50
2022-10-14T13:54:27.960Z,97584.22
2022-10-14T13:57:47.941Z,97582.78
2022-10-14T14:02:53.362Z,97578.38
2022-10-14T14:05:35.446Z,97564.78
2022-10-14T14:08:36.853Z,97570.63
2022-10-14T14:11:16.216Z,97567.06
2022-10-14T14:13:59.912Z,97568.22
2022-10-14T14:16:35.825Z,97558.78
2022-10-14T14:19:09.315Z,97559.88
2022-10-14T14:21:42.854Z,97549.28
2022-10-14T14:24:29.527Z,97550.41
2022-10-14T14:26:59.943Z,97545.72
2022-10-14T14:29:34.379Z,97547.38
2022-10-14T14:32:08.466Z,97557.63
2022-10-14T14:34:40.959Z,97558.84
2022-10-14T14:40:19.647Z,97550.56
2022-10-14T14:42:53.523Z,97553.84
2022-10-14T14:45:27.005Z,97555.66
2022-10-14T14:48:00.342Z,97547.91
2022-10-14T14:50:34.856Z,97546.03
2022-10-14T14:53:22.818Z,97552.72
2022-10-14T14:56:07.876Z,97548.56
2022-10-14T14:58:49.412Z,97548.56
2022-10-14T15:01:24.830Z,97545.91
2022-10-14T15:04:11.993Z,97544.38
2022-10-14T15:06:51.616Z,97542.03
2022-10-14T15:09:36.612Z,97541.78
2022-10-14T15:12:10.975Z,97542.72
2022-10-14T15:14:48.608Z,97533.03
2022-10-14T15:17:32.195Z,97535.13
2022-10-14T15:20:29.888Z,97543.38
2022-10-14T15:23:00.859Z,97540.56
2022-10-14T15:25:35.794Z,97536.47
2022-10-14T15:28:06.499Z,97534.03
2022-10-14T15:30:54.073Z,97544.28
2022-10-14T15:33:26.758Z,97536.16
2022-10-14T15:36:00.012Z,97534.66
2022-10-14T15:41:23.981Z,97526.53
2022-10-14T15:43:54.238Z,97527.16
2022-10-14T15:46:37.868Z,97524.69
2022-10-14T15:49:25.764Z,97517.63
2022-10-14T15:51:55.927Z,97516.47
2022-10-14T15:54:27.767Z,97509.19
2022-10-14T15:57:01.393Z,97517.91
2022-10-14T15:59:31.614Z,97502.44
2022-10-14T16:02:01.925Z,97504.78
2022-10-14T16:04:33.622Z,97498.69
2022-10-14T16:07:04.001Z,97509.03
2022-10-14T16:09:34.245Z,97500.97
2022-10-14T16:12:08.466Z,97497.97
2022-10-14T16:14:38.698Z,97492.56
2022-10-14T16:17:09.120Z,97494.97
2022-10-14T16:19:39.397Z,97492.44
2022-10-14T16:22:10.373Z,97484.84
2022-10-14T16:24:41.638Z,97486.97
2022-10-14T16:27:14.457Z,97475.78
2022-10-14T16:29:44.781Z,97480.16
2022-10-14T16:32:16.802Z,97477.16
2022-10-14T16:34:46.972Z,97483.00
2022-10-14T16:37:17.171Z,97486.81
2022-10-14T16:39:48.172Z,97485.84
2022-10-14T16:42:21.948Z,97478.06
2022-10-14T16:44:52.142Z,97483.16
2022-10-14T16:47:23.859Z,97477.78
2022-10-14T16:49:57.189Z,97472.94
2022-10-14T16:52:27.342Z,97474.41
2022-10-14T16:54:57.541Z,97476.75
2022-10-14T16:57:34.708Z,97472.19
2022-10-14T17:00:05.578Z,97470.50
2022-10-14T17:02:35.500Z,97472.88
2022-10-14T17:05:05.657Z,97477.69
2022-10-14T17:07:36.607Z,97474.94
2022-10-14T17:10:08.013Z,97473.88
2022-10-14T17:12:42.452Z,97477.97
2022-10-14T17:15:14.118Z,97486.34
2022-10-14T17:17:44.253Z,97482.56
2022-10-14T17:20:14.426Z,97489.63
2022-10-14T17:22:44.763Z,97496.75
2022-10-14T17:25:15.390Z,97488.91
2022-10-14T17:27:48.171Z,97489.63
2022-10-14T17:30:18.695Z,97491.13
2022-10-14T17:32:49.595Z,97485.31
2022-10-14T17:35:19.863Z,97481.25
2022-10-14T17:37:50.171Z,97481.75
2022-10-14T17:40:20.544Z,97481.28
2022-10-14T17:42:53.336Z,97487.16
2022-10-14T17:45:25.439Z,97487.69
2022-10-14T17:47:57.238Z,97486.22
2022-10-14T17:50:28.832Z,97479.09
2022-10-14T17:52:59.724Z,97470.13
2022-10-14T17:55:29.590Z,97468.38
2022-10-14T17:58:02.369Z,97467.16
2022-10-14T18:00:32.535Z,97472.97
2022-10-14T18:03:02.737Z,97475.03
2022-10-14T18:05:32.864Z,97472.00
2022-10-14T18:08:03.432Z,97468.72
2022-10-14T18:10:33.836Z,97464.41
2022-10-14T18:13:07.026Z,97467.94
2022-10-14T18:15:37.267Z,97462.63
2022-10-14T18:18:08.466Z,97458.50
2022-10-14T18:20:39.726Z,97455.47
2022-10-14T18:23:11.489Z,97468.50
2022-10-14T18:25:41.783Z,97457.31
2022-10-14T18:28:14.556Z,97449.19
2022-10-14T18:30:44.760Z,97447.41
2022-10-14T18:33:14.977Z,97455.50
2022-10-14T18:35:48.579Z,97444.88
2022-10-14T18:38:19.062Z,97431.72
2022-10-14T18:40:49.372Z,97435.47
2022-10-14T18:43:22.340Z,97444.66
2022-10-14T18:45:52.747Z,97433.19
2022-10-14T18:48:23.032Z,97436.53
2022-10-14T18:51:00.357Z,97429.94
2022-10-14T18:53:32.326Z,97427.47
2022-10-14T18:56:08.766Z,97429.94
2022-10-14T18:58:42.518Z,97426.91
2022-10-14T19:01:15.357Z,97427.19
2022-10-14T19:03:48.842Z,97435.31
2022-10-14T19:06:19.195Z,97426.19
2022-10-14T19:08:49.647Z,97420.31
2022-10-14T19:11:22.342Z,97416.00
2022-10-14T19:13:58.066Z,97419.06
2022-10-14T19:16:31.037Z,97422.59
2022-10-14T19:19:04.127Z,97405.09
2022-10-14T19:21:34.686Z,97412.16
2022-10-14T19:24:05.885Z,97397.69
2022-10-14T19:26:40.002Z,97401.72
2022-10-14T19:29:16.509Z,97390.78
2022-10-14T19:31:47.309Z,97387.94
2022-10-14T19:34:19.172Z,97395.63
2022-10-14T19:36:49.413Z,97388.25
2022-10-14T19:39:20.150Z,97381.13
2022-10-14T19:41:50.428Z,97375.03
2022-10-14T19:44:23.301Z,97385.50
2022-10-14T19:46:53.461Z,97379.41
2022-10-14T19:49:23.617Z,97374.31
2022-10-14T19:51:54.021Z,97371.22
2022-10-14T19:54:24.219Z,97360.09
2022-10-14T19:56:54.377Z,97363.19
2022-10-14T19:59:27.232Z,97365.44
2022-10-14T20:01:57.400Z,97366.47
2022-10-14T20:04:27.911Z,97355.81
2022-10-14T20:06:58.124Z,97352.28
2022-10-14T20:09:28.995Z,97350.78
2022-10-14T20:11:59.134Z,97340.09
2022-10-14T20:14:32.004Z,97344.66
2022-10-14T20:17:02.144Z,97341.16
2022-10-14T20:19:32.410Z,97329.16
2022-10-14T20:22:02.746Z,97329.44
2022-10-14T20:24:32.955Z,97325.41
2022-10-14T20:27:04.600Z,97323.69
2022-10-14T20:29:41.341Z,97325.22
2022-10-14T20:32:12.182Z,97321.66
2022-10-14T20:34:42.105Z,97314.28
2022-10-14T20:37:12.301Z,97316.31
2022-10-14T20:39:42.511Z,97303.34
2022-10-14T20:42:12.619Z,97311.75
2022-10-14T20:44:45.314Z,97306.47
2022-10-14T20:47:15.515Z,97309.22
2022-10-14T20:49:45.790Z,97314.03
2022-10-14T20:52:15.920Z,97310.50
2022-10-14T20:54:46.088Z,97315.59
2022-10-14T20:57:16.455Z,97310.75
2022-10-14T20:59:49.253Z,97314.34
2022-10-14T21:02:22.581Z,97319.16
2022-10-14T21:04:54.560Z,97321.63
2022-10-14T21:07:25.197Z,97310.97
2022-10-14T21:09:55.653Z,97308.97
2022-10-14T21:12:26.334Z,97309.53
2022-10-14T21:14:59.073Z,97306.00
2022-10-14T21:17:29.230Z,97308.53
2022-10-14T21:19:59.376Z,97302.97
2022-10-14T21:22:29.580Z,97296.16
2022-10-14T21:24:59.916Z,97294.38
2022-10-14T21:27:30.030Z,97295.91
2022-10-14T21:30:02.790Z,97289.84
2022-10-14T21:32:32.974Z,97291.59
2022-10-14T21:35:03.188Z,97288.56
2022-10-14T21:37:33.285Z,97293.44
2022-10-14T21:40:03.369Z,97279.22
2022-10-14T21:42:33.450Z,97283.84
2022-10-14T21:45:06.421Z,97279.34
2022-10-14T21:47:36.578Z,97280.13
2022-10-14T21:50:07.339Z,97286.72
2022-10-14T21:52:37.828Z,97277.06
2022-10-14T21:55:09.596Z,97261.34
2022-10-14T21:57:39.723Z,97253.25
2022-10-14T22:00:14.827Z,97264.19
2022-10-14T22:02:45.037Z,97252.28
2022-10-14T22:05:15.267Z,97243.94
2022-10-14T22:07:45.349Z,97246.72
2022-10-14T22:10:27.810Z,97251.00
2022-10-14T22:12:59.531Z,97252.06
2022-10-14T22:15:32.471Z,97240.16
2022-10-14T22:18:02.705Z,97238.63
2022-10-14T22:20:32.935Z,97242.69
2022-10-14T22:23:03.236Z,97232.81
2022-10-14T22:25:35.889Z,97237.13
2022-10-14T22:28:06.985Z,97240.41
2022-10-14T22:30:40.240Z,97239.09
2022-10-14T22:33:10.551Z,97235.09
2022-10-14T22:35:40.834Z,97239.69
2022-10-14T22:38:11.338Z,97225.78
2022-10-14T22:40:41.559Z,97230.81
2022-10-14T22:43:11.790Z,97229.25
2022-10-14T22:45:47.624Z,97223.41
2022-10-14T22:48:17.810Z,97217.06
2022-10-14T22:50:47.977Z,97230.75
2022-10-14T22:53:18.231Z,97222.88
2022-10-14T22:55:54.355Z,97217.75
2022-10-14T22:58:24.889Z,97217.72
2022-10-14T23:00:57.818Z,97207.28
2022-10-14T23:03:28.988Z,97216.91
2022-10-14T23:06:03.970Z,97213.38
2022-10-14T23:08:35.377Z,97220.00
2022-10-14T23:11:07.098Z,97221.56
2022-10-14T23:13:37.787Z,97220.81
2022-10-14T23:16:14.121Z,97210.06
2022-10-14T23:18:45.768Z,97218.72
2022-10-14T23:21:19.382Z,97210.41
2022-10-14T23:23:51.634Z,97207.34
2022-10-14T23:26:26.155Z,97207.16
2022-10-14T23:28:58.170Z,97195.53
2022-10-14T23:31:33.304Z,97205.41
2022-10-14T23:34:05.778Z,97196.50
2022-10-14T23:36:36.488Z,97193.69
2022-10-14T23:39:07.941Z,97198.75
2022-10-14T23:41:38.454Z,97205.84
2022-10-14T23:44:08.644Z,97209.13
2022-10-14T23:46:41.664Z,97204.06
2022-10-14T23:49:25.653Z,97195.91
2022-10-14T23:51:56.882Z,97197.69
2022-10-14T23:54:27.221Z,97198.13
2022-10-14T23:56:57.386Z,97195.34
2022-10-14T23:59:27.460Z,97193.84
